createdAt,value
2022-08-17T00:02:25.334Z,19.90
2022-08-17T00:04:54.536Z,19.80
2022-08-17T00:07:21.258Z,19.60
2022-08-17T00:09:48.193Z,19.40
2022-08-17T00:12:43.178Z,19.30
2022-08-17T00:15:02.313Z,19.30
2022-08-17T00:17:29.171Z,19.20
2022-08-17T00:19:55.860Z,19.20
2022-08-17T00:22:35.328Z,19.00
2022-08-17T00:25:07.536Z,18.90
2022-08-17T00:27:34.952Z,18.80
2022-08-17T00:30:02.155Z,18.90
2022-08-17T00:33:15.124Z,18.80
2022-08-17T00:35:19.414Z,18.80
2022-08-17T00:37:46.229Z,18.90
2022-08-17T00:40:15.097Z,19.00
2022-08-17T00:42:43.414Z,18.90
2022-08-17T00:45:12.877Z,18.90
2022-08-17T00:47:40.407Z,18.90
2022-08-17T00:50:10.767Z,18.90
2022-08-17T00:52:43.693Z,19.10
2022-08-17T00:55:11.080Z,19.10
2022-08-17T00:57:43.339Z,19.10
2022-08-17T01:00:15.747Z,19.00
2022-08-17T01:02:45.322Z,19.20
2022-08-17T01:05:16.399Z,18.80
2022-08-17T01:07:47.613Z,18.50
2022-08-17T01:10:58.227Z,18.60
2022-08-17T01:13:04.053Z,18.70
2022-08-17T01:15:36.518Z,18.60
2022-08-17T01:18:05.470Z,18.60
2022-08-17T01:20:32.509Z,18.70
2022-08-17T01:23:20.534Z,18.60
2022-08-17T01:25:53.299Z,18.40
2022-08-17T01:28:52.716Z,18.20
2022-08-17T01:31:08.886Z,18.00
2022-08-17T01:33:36.658Z,18.00
2022-08-17T01:36:07.018Z,18.00
2022-08-17T01:38:37.846Z,17.90
2022-08-17T01:41:13.641Z,17.90
2022-08-17T01:43:47.445Z,18.00
2022-08-17T01:46:22.750Z,17.90
2022-08-17T01:48:51.166Z,18.10
2022-08-17T01:51:18.149Z,18.20
2022-08-17T01:53:50.120Z,18.30
2022-08-17T01:56:20.401Z,18.20
2022-08-17T01:58:48.055Z,18.20
2022-08-17T02:01:19.588Z,18.10
2022-08-17T02:03:53.225Z,18.20
2022-08-17T02:06:28.491Z,18.10
2022-08-17T02:09:02.835Z,18.20
2022-08-17T02:11:33.061Z,18.30
2022-08-17T02:14:03.360Z,18.40
2022-08-17T02:16:37.333Z,18.50
2022-08-17T02:19:10.145Z,18.50
2022-08-17T02:21:37.783Z,18.40
2022-08-17T02:24:08.196Z,18.30
2022-08-17T02:26:35.172Z,18.20
2022-08-17T02:29:02.014Z,18.10
2022-08-17T02:31:31.025Z,18.10
2022-08-17T02:34:03.681Z,18.10
2022-08-17T02:36:33.886Z,18.20
2022-08-17T02:39:06.270Z,18.10
2022-08-17T02:41:33.435Z,18.00
2022-08-17T02:44:00.284Z,18.00
2022-08-17T02:46:27.312Z,18.00
2022-08-17T02:48:54.162Z,17.80
2022-08-17T02:51:20.859Z,17.70
2022-08-17T02:53:47.635Z,17.60
2022-08-17T02:56:14.341Z,17.40
2022-08-17T02:58:41.241Z,17.40
2022-08-17T03:01:09.771Z,17.30
2022-08-17T03:03:37.773Z,17.40
2022-08-17T03:06:06.125Z,17.30
2022-08-17T03:08:32.890Z,17.30
2022-08-17T03:10:59.695Z,17.30
2022-08-17T03:13:27.164Z,17.40
2022-08-17T03:15:54.011Z,17.50
2022-08-17T03:18:25.082Z,17.60
2022-08-17T03:20:58.128Z,17.70
2022-08-17T03:23:25.868Z,17.80
2022-08-17T03:25:55.098Z,17.70
2022-08-17T03:28:22.994Z,17.70
2022-08-17T03:30:51.215Z,17.50
2022-08-17T03:33:19.124Z,17.50
2022-08-17T03:35:46.332Z,17.40
2022-08-17T03:38:15.318Z,17.30
2022-08-17T03:40:57.192Z,17.30
2022-08-17T03:43:30.111Z,17.30
2022-08-17T03:46:27.644Z,17.30
2022-08-17T03:49:19.153Z,17.30
2022-08-17T03:52:04.564Z,17.40
2022-08-17T03:54:50.228Z,17.30
2022-08-17T03:57:17.054Z,17.40
2022-08-17T03:59:44.879Z,17.30
2022-08-17T04:02:19.060Z,17.20
2022-08-17T04:04:45.839Z,17.20
2022-08-17T04:07:12.736Z,17.30
2022-08-17T04:09:39.433Z,17.40
2022-08-17T04:12:06.374Z,17.30
2022-08-17T04:14:45.988Z,17.40
2022-08-17T04:17:22.326Z,17.40
2022-08-17T04:19:49.051Z,17.40
2022-08-17T04:22:31.095Z,17.60
2022-08-17T04:25:18.423Z,17.70
2022-08-17T04:27:45.125Z,17.70
2022-08-17T04:30:12.830Z,17.80
2022-08-17T04:33:08.599Z,17.80
2022-08-17T04:35:48.124Z,17.90
2022-08-17T04:38:20.519Z,18.00
2022-08-17T04:41:06.454Z,18.10
2022-08-17T04:43:35.052Z,18.00
2022-08-17T04:46:11.439Z,17.90
2022-08-17T04:48:44.918Z,18.00
2022-08-17T04:51:19.336Z,18.00
2022-08-17T04:53:54.104Z,18.00
2022-08-17T04:56:22.064Z,18.10
2022-08-17T04:58:51.635Z,18.10
2022-08-17T05:01:23.614Z,18.10
2022-08-17T05:03:56.479Z,18.20
2022-08-17T05:06:23.696Z,18.20
2022-08-17T05:08:50.940Z,18.30
2022-08-17T05:11:18.105Z,18.40
2022-08-17T05:13:45.030Z,18.60
2022-08-17T05:16:12.060Z,18.70
2022-08-17T05:18:39.110Z,18.70
2022-08-17T05:21:06.965Z,18.70
2022-08-17T05:23:42.055Z,18.70
2022-08-17T05:26:26.913Z,18.70
2022-08-17T05:28:57.187Z,19.00
2022-08-17T05:31:26.820Z,19.20
2022-08-17T05:33:53.996Z,19.30
2022-08-17T05:36:38.025Z,19.50
2022-08-17T05:39:15.681Z,19.60
2022-08-17T05:41:45.070Z,19.70
2022-08-17T05:44:11.760Z,19.90
2022-08-17T05:46:43.404Z,20.10
2022-08-17T05:49:18.058Z,20.30
2022-08-17T05:52:03.450Z,20.30
2022-08-17T05:54:58.977Z,20.50
2022-08-17T05:57:53.770Z,20.70
2022-08-17T06:00:26.296Z,20.70
2022-08-17T06:03:29.304Z,21.00
2022-08-17T06:06:33.586Z,21.20
2022-08-17T06:09:18.739Z,21.40
2022-08-17T06:12:14.335Z,21.90
2022-08-17T06:15:24.868Z,22.10
2022-08-17T06:17:58.595Z,22.40
2022-08-17T06:20:35.564Z,22.70
2022-08-17T06:23:08.506Z,23.00
2022-08-17T06:25:44.505Z,23.20
2022-08-17T06:28:16.189Z,23.30
2022-08-17T06:31:00.749Z,23.50
2022-08-17T06:33:35.583Z,23.60
2022-08-17T06:36:25.155Z,24.00
2022-08-17T06:39:12.575Z,24.50
2022-08-17T06:42:07.177Z,24.80
2022-08-17T06:44:51.079Z,25.20
2022-08-17T06:47:31.593Z,25.50
2022-08-17T06:50:08.842Z,25.90
2022-08-17T06:52:47.631Z,26.20
2022-08-17T06:55:21.298Z,26.30
2022-08-17T06:57:55.156Z,26.50
2022-08-17T07:00:33.616Z,26.30
2022-08-17T07:03:16.498Z,26.10
2022-08-17T07:06:05.407Z,26.20
2022-08-17T07:09:07.383Z,25.90
2022-08-17T07:11:50.362Z,26.10
2022-08-17T07:14:37.826Z,26.50
2022-08-17T07:17:18.244Z,26.60
2022-08-17T07:19:47.829Z,26.40
2022-08-17T07:22:57.555Z,26.70
2022-08-17T07:25:21.821Z,27.10
2022-08-17T07:27:53.993Z,27.30
2022-08-17T07:30:25.043Z,27.50
2022-08-17T07:33:02.444Z,27.60
2022-08-17T07:35:31.085Z,27.70
2022-08-17T07:38:25.045Z,27.80
2022-08-17T07:40:59.005Z,27.90
2022-08-17T07:43:29.409Z,27.80
2022-08-17T07:46:30.192Z,28.00
2022-08-17T07:49:18.024Z,28.20
2022-08-17T07:51:45.690Z,28.10
2022-08-17T07:54:15.302Z,28.20
2022-08-17T07:57:29.390Z,28.20
2022-08-17T07:59:59.642Z,28.60
2022-08-17T08:02:33.470Z,28.90
2022-08-17T08:05:32.872Z,28.40
2022-08-17T08:08:42.314Z,28.40
2022-08-17T08:11:15.686Z,28.90
2022-08-17T08:13:45.563Z,29.30
2022-08-17T08:16:24.471Z,29.50
2022-08-17T08:18:58.557Z,29.60
2022-08-17T08:21:49.158Z,29.30
2022-08-17T08:24:32.619Z,29.00
2022-08-17T08:27:33.550Z,29.00
2022-08-17T08:30:14.827Z,29.00
2022-08-17T08:32:54.040Z,29.00
2022-08-17T08:35:40.074Z,29.20
2022-08-17T08:38:26.725Z,29.10
2022-08-17T08:41:13.901Z,29.20
2022-08-17T08:44:03.633Z,29.30
2022-08-17T08:46:59.915Z,29.20
2022-08-17T08:50:01.212Z,29.20
2022-08-17T08:52:51.278Z,29.40
2022-08-17T08:55:41.678Z,29.60
2022-08-17T08:58:32.068Z,29.80
2022-08-17T09:01:09.398Z,29.70
2022-08-17T09:04:25.103Z,29.90
2022-08-17T09:07:10.885Z,29.70
2022-08-17T09:10:06.620Z,29.80
2022-08-17T09:13:09.590Z,29.90
2022-08-17T09:15:47.231Z,30.10
2022-08-17T09:18:59.171Z,30.00
2022-08-17T09:21:13.703Z,30.30
2022-08-17T09:23:49.462Z,30.70
2022-08-17T09:26:23.793Z,30.80
2022-08-17T09:28:53.277Z,30.60
2022-08-17T09:31:49.150Z,30.70
2022-08-17T09:34:19.437Z,30.50
2022-08-17T09:37:03.084Z,30.60
2022-08-17T09:40:02.816Z,30.50
2022-08-17T09:42:49.936Z,30.60
2022-08-17T09:45:45.290Z,30.80
2022-08-17T09:48:27.664Z,31.00
2022-08-17T09:51:45.254Z,30.80
2022-08-17T09:54:38.564Z,31.20
2022-08-17T09:57:28.449Z,31.40
2022-08-17T10:00:12.187Z,31.10
2022-08-17T10:02:51.516Z,31.10
2022-08-17T10:05:37.530Z,31.40
2022-08-17T10:08:21.862Z,31.40
2022-08-17T10:10:56.496Z,31.40
2022-08-17T10:13:52.778Z,31.60
2022-08-17T10:16:56.155Z,31.70
2022-08-17T10:19:39.054Z,31.40
2022-08-17T10:22:43.822Z,31.60
2022-08-17T10:25:53.515Z,31.70
2022-08-17T10:28:28.905Z,31.50
2022-08-17T10:31:30.961Z,31.50
2022-08-17T10:34:18.920Z,31.60
2022-08-17T10:37:19.734Z,31.90
2022-08-17T10:40:02.501Z,32.20
2022-08-17T10:42:34.736Z,32.20
2022-08-17T10:45:23.462Z,32.30
2022-08-17T10:48:05.673Z,32.50
2022-08-17T10:50:57.650Z,32.50
2022-08-17T10:53:33.546Z,32.40
2022-08-17T10:56:12.229Z,32.30
2022-08-17T10:58:49.574Z,32.50
2022-08-17T11:01:17.350Z,32.10
2022-08-17T11:03:54.911Z,32.10
2022-08-17T11:06:47.552Z,32.40
2022-08-17T11:09:39.265Z,32.30
2022-08-17T11:12:09.119Z,32.10
2022-08-17T11:14:54.734Z,31.70
2022-08-17T11:17:47.409Z,31.60
2022-08-17T11:20:45.089Z,31.80
2022-08-17T11:23:48.406Z,31.70
2022-08-17T11:26:36.570Z,32.20
2022-08-17T11:29:18.416Z,32.60
2022-08-17T11:32:00.236Z,32.60
2022-08-17T11:34:30.299Z,32.70
2022-08-17T11:37:31.133Z,32.80
2022-08-17T11:40:05.147Z,32.90
2022-08-17T11:42:54.289Z,32.80
2022-08-17T11:45:53.481Z,32.70
2022-08-17T11:49:02.782Z,32.60
2022-08-17T11:52:06.912Z,32.60
2022-08-17T11:54:45.242Z,32.90
2022-08-17T11:57:27.305Z,32.90
2022-08-17T11:59:53.938Z,33.20
2022-08-17T12:02:32.697Z,33.10
2022-08-17T12:05:14.573Z,33.00
2022-08-17T12:08:04.312Z,33.20
2022-08-17T12:10:35.421Z,33.20
2022-08-17T12:13:11.024Z,33.20
2022-08-17T12:15:42.427Z,32.50
2022-08-17T12:18:18.255Z,32.30
2022-08-17T12:20:54.603Z,32.70
2022-08-17T12:23:34.080Z,32.20
2022-08-17T12:26:08.977Z,32.50
2022-08-17T12:28:38.778Z,32.30
2022-08-17T12:31:17.808Z,32.10
2022-08-17T12:33:46.308Z,31.90
2022-08-17T12:36:20.887Z,32.30
2022-08-17T12:39:13.878Z,32.80
2022-08-17T12:41:44.412Z,32.70
2022-08-17T12:44:24.096Z,32.50
2022-08-17T12:46:56.070Z,32.60
2022-08-17T12:49:25.848Z,32.70
2022-08-17T12:52:15.586Z,32.70
2022-08-17T12:55:12.165Z,32.80
2022-08-17T12:57:38.961Z,33.20
2022-08-17T13:00:17.681Z,33.40
2022-08-17T13:02:52.214Z,33.30
2022-08-17T13:05:37.448Z,33.70
2022-08-17T13:08:18.351Z,33.90
2022-08-17T13:10:55.588Z,34.00
2022-08-17T13:13:28.362Z,33.70
2022-08-17T13:15:58.588Z,33.30
2022-08-17T13:18:47.343Z,33.60
2022-08-17T13:21:27.036Z,34.00
2022-08-17T13:24:10.170Z,34.30
2022-08-17T13:26:48.544Z,34.30
2022-08-17T13:29:35.606Z,33.80
2022-08-17T13:32:13.437Z,33.50
2022-08-17T13:35:12.090Z,33.80
2022-08-17T13:38:01.310Z,34.30
2022-08-17T13:40:37.549Z,34.70
2022-08-17T13:43:04.393Z,34.90
2022-08-17T13:45:35.477Z,35.10
2022-08-17T13:48:16.966Z,34.80
2022-08-17T13:51:19.969Z,34.30
2022-08-17T13:53:53.190Z,34.20
2022-08-17T13:57:07.376Z,34.20
2022-08-17T13:59:54.348Z,34.10
2022-08-17T14:02:27.789Z,34.00
2022-08-17T14:04:56.592Z,33.80
2022-08-17T14:07:27.804Z,33.70
2022-08-17T14:10:02.705Z,33.60
2022-08-17T14:12:32.098Z,33.70
2022-08-17T14:14:59.447Z,33.50
2022-08-17T14:17:28.872Z,33.60
2022-08-17T14:19:55.888Z,33.60
2022-08-17T14:22:30.530Z,33.90
2022-08-17T14:24:58.809Z,34.00
2022-08-17T14:27:28.034Z,34.10
2022-08-17T14:29:56.149Z,34.00
2022-08-17T14:32:30.201Z,34.20
2022-08-17T14:34:57.818Z,34.30
2022-08-17T14:37:27.955Z,34.30
2022-08-17T14:40:00.347Z,33.70
2022-08-17T14:42:30.130Z,33.90
2022-08-17T14:44:58.671Z,33.90
2022-08-17T14:47:26.608Z,33.80
2022-08-17T14:49:53.959Z,33.70
2022-08-17T14:52:21.844Z,33.70
2022-08-17T14:54:51.292Z,33.90
2022-08-17T14:57:33.446Z,33.70
2022-08-17T15:00:02.150Z,33.90
2022-08-17T15:02:29.957Z,33.80
2022-08-17T15:05:04.135Z,33.40
2022-08-17T15:07:31.528Z,33.50
2022-08-17T15:10:00.688Z,33.60
2022-08-17T15:12:32.373Z,33.30
2022-08-17T15:15:00.927Z,33.10
2022-08-17T15:17:44.782Z,32.90
2022-08-17T15:20:22.919Z,32.50
2022-08-17T15:22:50.840Z,32.70
2022-08-17T15:25:19.701Z,32.90
2022-08-17T15:27:47.388Z,33.00
2022-08-17T15:30:15.718Z,33.10
2022-08-17T15:32:50.666Z,33.10
2022-08-17T15:35:27.107Z,32.90
2022-08-17T15:38:03.534Z,32.60
2022-08-17T15:40:34.930Z,32.20
2022-08-17T15:43:32.552Z,32.20
2022-08-17T15:46:12.185Z,32.20
2022-08-17T15:48:41.801Z,31.90
2022-08-17T15:51:11.153Z,31.90
2022-08-17T15:53:38.541Z,31.70
2022-08-17T15:56:06.283Z,31.70
2022-08-17T15:58:34.909Z,31.80
2022-08-17T16:01:14.853Z,31.80
2022-08-17T16:04:05.123Z,31.90
2022-08-17T16:06:33.588Z,31.90
2022-08-17T16:09:00.432Z,31.90
2022-08-17T16:11:27.260Z,31.90
2022-08-17T16:13:54.972Z,31.80
2022-08-17T16:16:23.680Z,31.80
2022-08-17T16:18:53.706Z,31.80
2022-08-17T16:21:25.692Z,31.80
2022-08-17T16:24:03.834Z,31.70
2022-08-17T16:26:32.908Z,31.60
2022-08-17T16:29:02.214Z,31.60
2022-08-17T16:31:29.344Z,31.60
2022-08-17T16:34:16.348Z,31.50
2022-08-17T16:36:53.572Z,31.40
2022-08-17T16:39:27.556Z,31.30
2022-08-17T16:41:55.929Z,31.10
2022-08-17T16:44:23.193Z,31.00
2022-08-17T16:46:50.492Z,31.00
2022-08-17T16:49:35.109Z,30.90
2022-08-17T16:52:04.790Z,30.80
2022-08-17T16:54:31.858Z,30.80
2022-08-17T16:56:58.793Z,30.80
2022-08-17T16:59:30.407Z,30.80
2022-08-17T17:02:04.762Z,30.70
2022-08-17T17:04:35.042Z,30.60
2022-08-17T17:07:33.634Z,30.60
2022-08-17T17:10:10.606Z,30.50
2022-08-17T17:13:01.245Z,30.40
2022-08-17T17:15:35.488Z,30.30
2022-08-17T17:18:06.774Z,30.20
2022-08-17T17:20:45.754Z,30.00
2022-08-17T17:23:46.978Z,29.90
2022-08-17T17:26:28.766Z,29.70
2022-08-17T17:29:18.214Z,29.60
2022-08-17T17:32:13.698Z,29.50
2022-08-17T17:34:50.524Z,29.50
2022-08-17T17:37:24.453Z,29.40
2022-08-17T17:39:59.902Z,29.30
2022-08-17T17:42:31.356Z,29.30
2022-08-17T17:45:23.990Z,29.20
2022-08-17T17:47:50.923Z,29.20
2022-08-17T17:50:21.356Z,29.20
2022-08-17T17:53:02.922Z,29.10
2022-08-17T17:55:47.112Z,29.00
2022-08-17T17:58:42.670Z,29.00
2022-08-17T18:01:24.870Z,28.90
2022-08-17T18:04:20.543Z,28.80
2022-08-17T18:06:58.651Z,28.70
2022-08-17T18:09:57.647Z,28.60
2022-08-17T18:12:43.310Z,28.50
2022-08-17T18:15:21.867Z,28.40
2022-08-17T18:18:31.192Z,28.30
2022-08-17T18:21:06.126Z,28.20
2022-08-17T18:23:33.570Z,28.10
2022-08-17T18:26:02.035Z,28.00
2022-08-17T18:28:43.871Z,27.90
2022-08-17T18:31:16.680Z,27.80
2022-08-17T18:33:48.038Z,27.70
2022-08-17T18:36:31.206Z,27.60
2022-08-17T18:39:20.914Z,27.50
2022-08-17T18:41:54.158Z,27.40
2022-08-17T18:44:38.164Z,27.30
2022-08-17T18:47:04.985Z,27.20
2022-08-17T18:49:31.647Z,27.20
2022-08-17T18:52:33.596Z,27.20
2022-08-17T18:55:00.333Z,27.10
2022-08-17T18:57:37.798Z,27.00
2022-08-17T19:00:39.387Z,26.80
2022-08-17T19:03:25.886Z,26.60
2022-08-17T19:06:15.152Z,26.60
2022-08-17T19:08:42.094Z,26.50
2022-08-17T19:11:23.497Z,26.60
2022-08-17T19:14:13.350Z,26.60
2022-08-17T19:16:53.579Z,26.60
2022-08-17T19:19:26.537Z,26.60
2022-08-17T19:22:43.744Z,26.60
2022-08-17T19:25:21.893Z,26.60
2022-08-17T19:27:57.713Z,26.50
2022-08-17T19:30:25.947Z,26.50
2022-08-17T19:32:53.135Z,26.50
2022-08-17T19:35:22.094Z,26.50
2022-08-17T19:38:17.940Z,26.40
2022-08-17T19:40:59.053Z,26.30
2022-08-17T19:43:52.254Z,26.20
2022-08-17T19:46:49.993Z,26.20
2022-08-17T19:49:33.497Z,26.20
2022-08-17T19:52:19.735Z,26.20
2022-08-17T19:54:55.586Z,26.20
2022-08-17T19:57:49.073Z,26.20
2022-08-17T20:00:18.002Z,26.20
2022-08-17T20:02:57.416Z,26.10
2022-08-17T20:06:09.179Z,26.00
2022-08-17T20:08:44.760Z,25.90
2022-08-17T20:11:20.241Z,25.70
2022-08-17T20:14:13.092Z,25.60
2022-08-17T20:16:40.065Z,25.60
2022-08-17T20:19:06.709Z,25.50
2022-08-17T20:21:49.634Z,25.50
2022-08-17T20:24:43.893Z,25.50
2022-08-17T20:28:06.612Z,25.60
2022-08-17T20:30:42.180Z,25.70
2022-08-17T20:33:24.479Z,25.60
2022-08-17T20:36:05.270Z,25.60
2022-08-17T20:38:57.920Z,25.60
2022-08-17T20:41:28.090Z,25.60
2022-08-17T20:43:58.746Z,25.60
2022-08-17T20:46:56.513Z,25.60
2022-08-17T20:49:33.615Z,25.60
2022-08-17T20:52:07.693Z,25.50
2022-08-17T20:54:46.499Z,25.40
2022-08-17T20:57:31.634Z,25.40
2022-08-17T21:00:17.012Z,25.30
2022-08-17T21:02:49.604Z,25.30
2022-08-17T21:05:30.209Z,25.40
2022-08-17T21:08:00.827Z,25.40
2022-08-17T21:10:27.428Z,25.40
2022-08-17T21:13:13.481Z,25.40
2022-08-17T21:15:58.869Z,25.40
2022-08-17T21:18:28.560Z,25.40
2022-08-17T21:21:00.859Z,25.40
2022-08-17T21:23:47.416Z,25.30
2022-08-17T21:26:50.110Z,25.20
2022-08-17T21:29:32.399Z,25.30
2022-08-17T21:32:03.595Z,25.30
2022-08-17T21:34:36.492Z,25.30
2022-08-17T21:37:26.192Z,25.20
2022-08-17T21:40:18.270Z,25.20
2022-08-17T21:42:55.626Z,25.10
2022-08-17T21:45:36.362Z,25.00
2022-08-17T21:48:20.666Z,25.00
2022-08-17T21:51:10.424Z,25.10
2022-08-17T21:53:55.729Z,25.10
2022-08-17T21:56:45.578Z,25.00
2022-08-17T21:59:19.330Z,25.00
2022-08-17T22:02:19.491Z,25.00
2022-08-17T22:05:04.090Z,25.10
2022-08-17T22:07:45.075Z,25.10
2022-08-17T22:10:30.629Z,25.00
2022-08-17T22:13:18.413Z,25.00
2022-08-17T22:16:27.770Z,24.90
2022-08-17T22:18:55.687Z,25.00
2022-08-17T22:21:25.056Z,25.10
2022-08-17T22:24:07.669Z,25.20
2022-08-17T22:26:59.458Z,25.20
2022-08-17T22:29:44.178Z,25.10
2022-08-17T22:32:11.070Z,25.00
2022-08-17T22:34:40.514Z,24.80
2022-08-17T22:37:27.311Z,24.70
2022-08-17T22:39:58.987Z,24.70
2022-08-17T22:42:25.863Z,24.70
2022-08-17T22:44:54.557Z,24.60
2022-08-17T22:47:29.317Z,24.60
2022-08-17T22:50:02.344Z,24.50
2022-08-17T22:52:34.424Z,24.40
2022-08-17T22:55:36.483Z,24.40
2022-08-17T22:58:33.530Z,24.30
2022-08-17T23:01:30.349Z,24.20
2022-08-17T23:04:01.189Z,24.00
2022-08-17T23:06:29.078Z,23.90
2022-08-17T23:08:57.578Z,23.70
2022-08-17T23:11:42.952Z,23.40
2022-08-17T23:14:15.873Z,23.10
2022-08-17T23:16:42.982Z,23.00
2022-08-17T23:19:11.331Z,22.70
2022-08-17T23:21:38.262Z,22.40
2022-08-17T23:24:06.759Z,21.90
2022-08-17T23:26:37.884Z,21.80
2022-08-17T23:29:06.723Z,21.50
2022-08-17T23:31:35.409Z,21.30
2022-08-17T23:34:04.183Z,21.20
2022-08-17T23:36:32.944Z,21.10
2022-08-17T23:38:59.642Z,21.00
2022-08-17T23:41:29.349Z,21.00
2022-08-17T23:43:56.157Z,21.00
2022-08-17T23:46:24.522Z,21.00
2022-08-17T23:48:54.821Z,21.00
2022-08-17T23:51:26.468Z,21.00
2022-08-17T23:53:58.152Z,21.00
2022-08-17T23:56:25.767Z,21.10
2022-08-17T23:58:54.784Z,21.20
